createdAt,value
2018-10-09T00:03:00.727Z,154.53
2018-10-09T00:08:03.260Z,142.57
2018-10-09T00:13:05.813Z,138.80
2018-10-09T00:18:08.331Z,114.00
2018-10-09T00:23:10.831Z,97.67
2018-10-09T00:28:13.363Z,103.07
2018-10-09T00:33:15.920Z,91.50
2018-10-09T00:38:18.452Z,86.00
2018-10-09T00:43:21.036Z,83.67
2018-10-09T00:48:23.568Z,78.77
2018-10-09T00:53:26.127Z,82.13
2018-10-09T00:58:28.697Z,95.07
2018-10-09T01:03:31.210Z,119.70
2018-10-09T01:08:33.759Z,106.90
2018-10-09T01:13:36.299Z,87.17
2018-10-09T01:18:38.893Z,93.83
2018-10-09T01:23:41.415Z,72.47
2018-10-09T01:28:43.943Z,79.50
2018-10-09T01:33:46.463Z,80.23
2018-10-09T01:38:49.032Z,78.17
2018-10-09T01:43:51.555Z,79.13
2018-10-09T01:48:54.084Z,81.27
2018-10-09T01:53:56.646Z,80.00
2018-10-09T01:58:59.171Z,74.63
2018-10-09T02:04:01.976Z,65.20
2018-10-09T02:09:06.623Z,64.57
2018-10-09T02:14:09.188Z,67.43
2018-10-09T02:19:11.727Z,67.13
2018-10-09T02:24:14.232Z,62.93
2018-10-09T02:29:16.746Z,61.17
2018-10-09T02:34:19.247Z,64.73
2018-10-09T02:39:21.780Z,68.20
2018-10-09T02:44:24.320Z,71.30
2018-10-09T02:49:26.830Z,62.50
2018-10-09T02:54:29.367Z,61.77
2018-10-09T02:59:31.892Z,60.90
2018-10-09T03:04:34.429Z,62.77
2018-10-09T03:09:36.932Z,67.60
2018-10-09T03:14:39.503Z,72.57
2018-10-09T03:19:42.033Z,75.53
2018-10-09T03:24:44.582Z,80.23
2018-10-09T03:29:47.112Z,91.30
2018-10-09T03:34:49.618Z,80.73
2018-10-09T03:39:52.130Z,83.63
2018-10-09T03:44:54.676Z,95.23
2018-10-09T03:49:57.191Z,98.90
2018-10-09T03:55:00.391Z,112.87
2018-10-09T04:00:03.016Z,110.23
2018-10-09T04:05:05.608Z,103.57
2018-10-09T04:10:08.164Z,104.93
2018-10-09T04:15:11.031Z,93.57
2018-10-09T04:20:13.564Z,107.53
2018-10-09T04:25:16.162Z,94.50
2018-10-09T04:30:18.695Z,122.33
2018-10-09T04:35:21.384Z,150.83
2018-10-09T04:40:23.818Z,116.97
2018-10-09T04:45:28.797Z,123.23
2018-10-09T04:50:31.303Z,132.83
2018-10-09T04:55:33.812Z,134.83
2018-10-09T05:00:36.390Z,133.93
2018-10-09T05:05:38.847Z,113.97
2018-10-09T05:10:41.443Z,106.57
2018-10-09T05:15:44.004Z,98.23
2018-10-09T05:20:46.583Z,89.27
2018-10-09T05:25:49.143Z,77.97
2018-10-09T05:30:52.020Z,85.77
2018-10-09T05:35:55.622Z,81.50
2018-10-09T05:40:58.150Z,85.60
2018-10-09T05:46:00.675Z,83.63
2018-10-09T05:51:03.254Z,89.70
2018-10-09T05:56:06.016Z,86.17
2018-10-09T06:01:08.550Z,85.67
2018-10-09T06:06:11.079Z,94.63
2018-10-09T06:11:13.621Z,95.20
2018-10-09T06:16:16.236Z,93.43
2018-10-09T06:21:18.786Z,84.53
2018-10-09T06:26:21.311Z,99.33
2018-10-09T06:31:23.850Z,88.00
2018-10-09T06:36:26.414Z,86.17
2018-10-09T06:41:29.051Z,80.90
2018-10-09T06:46:31.593Z,72.13
2018-10-09T06:51:34.167Z,70.20
2018-10-09T06:56:36.651Z,61.27
2018-10-09T07:01:39.176Z,65.07
2018-10-09T07:06:41.787Z,56.90
2018-10-09T07:11:44.375Z,53.23
2018-10-09T07:16:47.733Z,57.60
2018-10-09T07:21:50.301Z,53.87
2018-10-09T07:26:52.871Z,55.00
2018-10-09T07:31:55.429Z,52.97
2018-10-09T07:36:58.035Z,51.43
2018-10-09T07:42:00.608Z,45.50
2018-10-09T07:47:03.234Z,42.63
2018-10-09T07:52:05.867Z,44.03
2018-10-09T07:57:09.202Z,51.70
2018-10-09T08:02:11.730Z,61.63
2018-10-09T08:07:14.267Z,57.40
2018-10-09T08:12:16.840Z,65.13
2018-10-09T08:17:19.358Z,60.83
2018-10-09T08:22:21.932Z,61.03
2018-10-09T08:27:24.448Z,63.27
2018-10-09T08:32:26.996Z,58.07
2018-10-09T08:37:29.559Z,55.50
2018-10-09T08:42:32.136Z,56.77
2018-10-09T08:47:34.690Z,55.13
2018-10-09T08:52:37.220Z,52.20
2018-10-09T08:57:39.771Z,55.93
2018-10-09T09:02:42.349Z,55.50
2018-10-09T09:07:44.943Z,48.47
2018-10-09T09:12:47.463Z,50.63
2018-10-09T09:17:50.030Z,55.77
2018-10-09T09:22:52.564Z,50.53
2018-10-09T09:27:55.168Z,49.80
2018-10-09T09:32:57.732Z,48.47
2018-10-09T09:38:00.259Z,42.63
2018-10-09T09:43:02.792Z,44.63
2018-10-09T09:48:05.550Z,42.23
2018-10-09T09:53:08.272Z,44.80
2018-10-09T09:58:10.961Z,42.70
2018-10-09T10:03:13.360Z,39.43
2018-10-09T10:08:15.920Z,43.40
2018-10-09T10:13:18.457Z,42.03
2018-10-09T10:18:21.088Z,33.53
2018-10-09T10:23:23.637Z,33.03
2018-10-09T10:28:26.169Z,32.13
2018-10-09T10:33:28.716Z,34.47
2018-10-09T10:38:31.282Z,30.20
2018-10-09T10:43:33.944Z,28.90
2018-10-09T10:48:41.066Z,31.40
2018-10-09T10:53:43.606Z,30.23
2018-10-09T10:58:46.427Z,27.63
2018-10-09T11:03:49.005Z,26.23
2018-10-09T11:08:51.563Z,24.83
2018-10-09T11:13:54.123Z,20.30
2018-10-09T11:18:56.671Z,20.90
2018-10-09T11:23:59.190Z,20.67
2018-10-09T11:29:01.745Z,15.00
2018-10-09T11:34:04.337Z,16.30
2018-10-09T11:39:07.354Z,15.05
2018-10-09T11:44:09.912Z,15.72
2018-10-09T11:49:12.512Z,14.25
2018-10-09T11:54:15.142Z,13.43
2018-10-09T11:59:17.683Z,14.33
2018-10-09T12:04:21.585Z,14.35
2018-10-09T12:09:24.135Z,12.55
2018-10-09T12:14:26.704Z,16.33
2018-10-09T12:19:29.253Z,12.00
2018-10-09T12:24:31.823Z,12.47
2018-10-09T12:29:34.765Z,14.13
2018-10-09T12:34:37.348Z,12.47
2018-10-09T12:39:39.881Z,12.05
2018-10-09T12:44:42.456Z,11.63
2018-10-09T12:49:45.016Z,12.53
2018-10-09T12:54:47.598Z,9.93
2018-10-09T12:59:50.233Z,9.83
2018-10-09T13:04:52.788Z,9.70
2018-10-09T13:09:55.414Z,8.75
2018-10-09T13:14:58.043Z,8.05
2018-10-09T13:20:01.234Z,9.38
2018-10-09T13:25:03.849Z,7.22
2018-10-09T13:30:06.812Z,6.92
2018-10-09T13:35:09.375Z,7.00
2018-10-09T13:40:11.991Z,7.15
2018-10-09T13:45:14.568Z,6.87
2018-10-09T13:50:17.188Z,7.85
2018-10-09T13:55:19.959Z,6.67
2018-10-09T14:00:22.507Z,7.17
2018-10-09T14:05:25.002Z,7.05
2018-10-09T14:10:27.632Z,7.87
2018-10-09T14:15:30.146Z,7.90
2018-10-09T14:20:32.742Z,8.40
2018-10-09T14:25:35.288Z,8.60
2018-10-09T14:30:37.824Z,9.77
2018-10-09T14:35:40.460Z,10.73
2018-10-09T14:40:43.028Z,9.63
2018-10-09T14:45:45.583Z,10.27
2018-10-09T14:50:48.165Z,11.30
2018-10-09T14:55:50.734Z,12.63
2018-10-09T15:00:53.288Z,12.73
2018-10-09T15:05:58.328Z,12.50
2018-10-09T15:11:00.927Z,16.03
2018-10-09T15:16:03.528Z,17.83
2018-10-09T15:21:06.745Z,17.23
2018-10-09T15:26:09.299Z,17.40
2018-10-09T15:31:11.832Z,15.80
2018-10-09T15:36:14.375Z,19.77
2018-10-09T15:41:17.357Z,23.67
2018-10-09T15:46:19.851Z,18.87
2018-10-09T15:51:22.435Z,23.40
2018-10-09T15:56:25.034Z,21.37
2018-10-09T16:01:27.694Z,26.13
2018-10-09T16:06:30.257Z,27.93
2018-10-09T16:11:32.798Z,27.53
2018-10-09T16:16:35.407Z,30.10
2018-10-09T16:21:38.628Z,33.50
2018-10-09T16:26:41.216Z,35.30
2018-10-09T16:31:43.766Z,31.27
2018-10-09T16:36:46.350Z,33.10
2018-10-09T16:41:48.943Z,34.83
2018-10-09T16:46:51.524Z,35.53
2018-10-09T16:51:54.072Z,38.73
2018-10-09T16:56:56.683Z,33.43
2018-10-09T17:01:59.234Z,35.53
2018-10-09T17:07:01.824Z,40.23
2018-10-09T17:12:04.435Z,39.63
2018-10-09T17:17:07.180Z,42.80
2018-10-09T17:22:09.799Z,42.37
2018-10-09T17:27:12.382Z,37.67
2018-10-09T17:32:14.919Z,39.23
2018-10-09T17:37:17.550Z,41.70
2018-10-09T17:42:20.167Z,44.73
2018-10-09T17:47:22.771Z,39.93
2018-10-09T17:52:25.545Z,38.37
2018-10-09T17:57:28.150Z,45.78
2018-10-09T18:02:30.851Z,42.57
2018-10-09T18:07:33.422Z,48.30
2018-10-09T18:12:36.004Z,46.57
2018-10-09T18:17:38.564Z,46.57
2018-10-09T18:22:41.400Z,49.17
2018-10-09T18:27:43.936Z,49.83
2018-10-09T18:32:46.761Z,45.60
2018-10-09T18:37:49.227Z,52.37
2018-10-09T18:42:51.822Z,53.03
2018-10-09T18:47:54.465Z,55.97
2018-10-09T18:52:57.216Z,58.13
2018-10-09T18:57:59.783Z,54.20
2018-10-09T19:03:02.373Z,59.30
2018-10-09T19:08:05.113Z,62.17
2018-10-09T19:13:07.719Z,57.20
2018-10-09T19:18:10.758Z,61.60
2018-10-09T19:23:13.414Z,64.20
2018-10-09T19:28:16.077Z,71.17
2018-10-09T19:33:18.689Z,64.47
2018-10-09T19:38:21.360Z,86.67
2018-10-09T19:43:23.995Z,70.60
2018-10-09T19:48:26.755Z,82.10
2018-10-09T19:53:29.327Z,90.73
2018-10-09T19:58:32.022Z,93.17
2018-10-09T20:03:34.728Z,90.80
2018-10-09T20:08:37.236Z,96.70
2018-10-09T20:13:39.900Z,95.07
2018-10-09T20:18:42.437Z,99.33
2018-10-09T20:23:45.068Z,94.77
2018-10-09T20:28:47.621Z,94.77
2018-10-09T20:33:50.158Z,127.07
2018-10-09T20:38:52.757Z,114.27
2018-10-09T20:43:55.342Z,106.63
2018-10-09T20:48:58.749Z,98.80
2018-10-09T20:54:01.574Z,97.53
2018-10-09T20:59:04.192Z,86.57
2018-10-09T21:04:06.782Z,82.90
2018-10-09T21:09:09.311Z,85.47
2018-10-09T21:14:11.826Z,82.43
2018-10-09T21:19:14.358Z,83.97
2018-10-09T21:24:16.979Z,82.73
2018-10-09T21:29:22.367Z,99.53
2018-10-09T21:34:25.003Z,93.20
2018-10-09T21:39:27.508Z,104.57
2018-10-09T21:44:30.072Z,98.93
2018-10-09T21:49:32.571Z,85.83
2018-10-09T21:54:35.145Z,111.67
2018-10-09T21:59:38.739Z,114.13
2018-10-09T22:04:41.272Z,95.53
2018-10-09T22:09:43.835Z,125.63
2018-10-09T22:14:46.406Z,112.23
2018-10-09T22:19:48.935Z,143.80
2018-10-09T22:24:51.451Z,140.63
2018-10-09T22:29:54.236Z,136.47
2018-10-09T22:34:56.780Z,165.97
2018-10-09T22:39:59.273Z,178.77
2018-10-09T22:45:02.778Z,154.30
2018-10-09T22:50:05.572Z,162.93
2018-10-09T22:55:08.129Z,176.70
2018-10-09T23:00:10.647Z,175.40
2018-10-09T23:05:13.264Z,220.73
2018-10-09T23:10:15.787Z,185.70
2018-10-09T23:15:18.349Z,160.40
2018-10-09T23:20:21.299Z,181.03
2018-10-09T23:25:23.811Z,143.27
2018-10-09T23:30:26.447Z,177.70
2018-10-09T23:35:28.980Z,183.10
2018-10-09T23:40:31.495Z,155.97
2018-10-09T23:45:34.498Z,185.10
2018-10-09T23:50:41.241Z,157.73
2018-10-09T23:55:43.749Z,219.17
